sensor_id;sensor_type;location;lat;lon;timestamp;pressure;altitude;pressure_sealevel;temperature;humidity
76297;BME280;65104;52.994;6.552;2023-04-29T00:00:50;101273.88;;;8.63;100.00
76297;BME280;65104;52.994;6.552;2023-04-29T00:03:15;101274.88;;;8.69;100.00
76297;BME280;65104;52.994;6.552;2023-04-29T00:05:41;101275.16;;;8.76;100.00
76297;BME280;65104;52.994;6.552;2023-04-29T00:08:07;101276.06;;;8.78;100.00
76297;BME280;65104;52.994;6.552;2023-04-29T00:10:32;101276.06;;;8.78;100.00
76297;BME280;65104;52.994;6.552;2023-04-29T00:12:57;101274.88;;;8.69;100.00
76297;BME280;65104;52.994;6.552;2023-04-29T00:15:23;101272.19;;;8.64;100.00
76297;BME280;65104;52.994;6.552;2023-04-29T00:17:48;101280.63;;;8.61;100.00
76297;BME280;65104;52.994;6.552;2023-04-29T00:20:14;101279.00;;;8.63;100.00
76297;BME280;65104;52.994;6.552;2023-04-29T00:22:40;101282.56;;;8.69;100.00
76297;BME280;65104;52.994;6.552;2023-04-29T00:25:06;101283.31;;;8.64;100.00
76297;BME280;65104;52.994;6.552;2023-04-29T00:27:31;101293.34;;;8.58;100.00
76297;BME280;65104;52.994;6.552;2023-04-29T00:29:57;101298.66;;;8.64;100.00
76297;BME280;65104;52.994;6.552;2023-04-29T00:32:22;101302.84;;;8.62;100.00
76297;BME280;65104;52.994;6.552;2023-04-29T00:34:48;101294.47;;;8.67;100.00
76297;BME280;65104;52.994;6.552;2023-04-29T00:37:13;101308.09;;;8.65;100.00
76297;BME280;65104;52.994;6.552;2023-04-29T00:39:39;101292.81;;;8.69;100.00
76297;BME280;65104;52.994;6.552;2023-04-29T00:42:04;101310.53;;;8.62;100.00
76297;BME280;65104;52.994;6.552;2023-04-29T00:44:30;101310.41;;;8.59;100.00
76297;BME280;65104;52.994;6.552;2023-04-29T00:46:55;101315.47;;;8.56;100.00
76297;BME280;65104;52.994;6.552;2023-04-29T00:49:21;101315.22;;;8.50;100.00
76297;BME280;65104;52.994;6.552;2023-04-29T00:51:46;101322.19;;;8.54;100.00
76297;BME280;65104;52.994;6.552;2023-04-29T00:54:12;101322.91;;;8.50;100.00
76297;BME280;65104;52.994;6.552;2023-04-29T00:56:38;101317.75;;;8.49;100.00
76297;BME280;65104;52.994;6.552;2023-04-29T00:59:06;101327.31;;;8.54;100.00
76297;BME280;65104;52.994;6.552;2023-04-29T01:01:33;101335.63;;;8.47;100.00
76297;BME280;65104;52.994;6.552;2023-04-29T01:03:59;101338.00;;;8.43;100.00
76297;BME280;65104;52.994;6.552;2023-04-29T01:09:15;101348.72;;;8.56;100.00
76297;BME280;65104;52.994;6.552;2023-04-29T01:11:54;101349.66;;;8.58;100.00
76297;BME280;65104;52.994;6.552;2023-04-29T01:14:24;101358.84;;;8.53;100.00
76297;BME280;65104;52.994;6.552;2023-04-29T01:16:58;101359.66;;;8.52;100.00
76297;BME280;65104;52.994;6.552;2023-04-29T01:19:43;101363.75;;;8.47;100.00
76297;BME280;65104;52.994;6.552;2023-04-29T01:22:09;101369.69;;;8.46;100.00
76297;BME280;65104;52.994;6.552;2023-04-29T01:24:35;101365.19;;;8.39;100.00
76297;BME280;65104;52.994;6.552;2023-04-29T01:27:13;101373.63;;;8.37;100.00
76297;BME280;65104;52.994;6.552;2023-04-29T01:32:36;101376.56;;;8.47;100.00
76297;BME280;65104;52.994;6.552;2023-04-29T01:35:37;101380.81;;;8.47;100.00
76297;BME280;65104;52.994;6.552;2023-04-29T01:41:19;101389.31;;;8.46;100.00
76297;BME280;65104;52.994;6.552;2023-04-29T01:43:50;101395.09;;;8.40;100.00
76297;BME280;65104;52.994;6.552;2023-04-29T01:46:17;101395.28;;;8.46;100.00
76297;BME280;65104;52.994;6.552;2023-04-29T01:48:45;101400.88;;;8.36;100.00
76297;BME280;65104;52.994;6.552;2023-04-29T01:51:11;101401.91;;;8.41;100.00
76297;BME280;65104;52.994;6.552;2023-04-29T01:53:37;101407.22;;;8.46;100.00
76297;BME280;65104;52.994;6.552;2023-04-29T01:56:05;101410.66;;;8.46;100.00
76297;BME280;65104;52.994;6.552;2023-04-29T01:58:31;101413.97;;;8.44;100.00
76297;BME280;65104;52.994;6.552;2023-04-29T02:00:56;101411.34;;;8.42;100.00
76297;BME280;65104;52.994;6.552;2023-04-29T02:03:21;101412.88;;;8.37;100.00
76297;BME280;65104;52.994;6.552;2023-04-29T02:05:47;101416.19;;;8.35;100.00
76297;BME280;65104;52.994;6.552;2023-04-29T02:08:15;101420.56;;;8.37;100.00
76297;BME280;65104;52.994;6.552;2023-04-29T02:10:40;101432.16;;;8.29;100.00
76297;BME280;65104;52.994;6.552;2023-04-29T02:13:05;101434.97;;;8.35;100.00
76297;BME280;65104;52.994;6.552;2023-04-29T02:15:31;101441.38;;;8.25;100.00
76297;BME280;65104;52.994;6.552;2023-04-29T02:17:56;101443.88;;;8.24;100.00
76297;BME280;65104;52.994;6.552;2023-04-29T02:20:22;101444.88;;;8.27;100.00
76297;BME280;65104;52.994;6.552;2023-04-29T02:22:47;101442.63;;;8.35;100.00
76297;BME280;65104;52.994;6.552;2023-04-29T02:25:13;101453.88;;;8.39;100.00
76297;BME280;65104;52.994;6.552;2023-04-29T02:27:38;101455.19;;;8.29;100.00
76297;BME280;65104;52.994;6.552;2023-04-29T02:30:04;101459.63;;;8.33;100.00
76297;BME280;65104;52.994;6.552;2023-04-29T02:32:30;101465.53;;;8.32;100.00
76297;BME280;65104;52.994;6.552;2023-04-29T02:34:56;101469.72;;;8.30;100.00
76297;BME280;65104;52.994;6.552;2023-04-29T02:37:22;101469.09;;;8.36;100.00
76297;BME280;65104;52.994;6.552;2023-04-29T02:39:47;101483.47;;;8.32;100.00
76297;BME280;65104;52.994;6.552;2023-04-29T02:42:13;101478.34;;;8.32;100.00
76297;BME280;65104;52.994;6.552;2023-04-29T02:44:38;101479.19;;;8.31;100.00
76297;BME280;65104;52.994;6.552;2023-04-29T02:47:04;101482.66;;;8.33;100.00
76297;BME280;65104;52.994;6.552;2023-04-29T02:49:29;101486.13;;;8.35;100.00
76297;BME280;65104;52.994;6.552;2023-04-29T02:51:55;101492.75;;;8.30;100.00
76297;BME280;65104;52.994;6.552;2023-04-29T02:54:20;101495.19;;;8.27;100.00
76297;BME280;65104;52.994;6.552;2023-04-29T02:56:45;101497.53;;;8.21;100.00
76297;BME280;65104;52.994;6.552;2023-04-29T02:59:11;101505.06;;;8.18;100.00
76297;BME280;65104;52.994;6.552;2023-04-29T03:01:36;101509.44;;;8.20;100.00
76297;BME280;65104;52.994;6.552;2023-04-29T03:04:03;101504.25;;;8.19;100.00
76297;BME280;65104;52.994;6.552;2023-04-29T03:06:28;101503.31;;;8.17;100.00
76297;BME280;65104;52.994;6.552;2023-04-29T03:08:54;101504.84;;;8.12;100.00
76297;BME280;65104;52.994;6.552;2023-04-29T03:11:19;101507.97;;;8.05;100.00
76297;BME280;65104;52.994;6.552;2023-04-29T03:13:44;101506.09;;;8.01;100.00
76297;BME280;65104;52.994;6.552;2023-04-29T03:16:10;101511.88;;;7.97;100.00
76297;BME280;65104;52.994;6.552;2023-04-29T03:18:37;101511.44;;;8.07;100.00
76297;BME280;65104;52.994;6.552;2023-04-29T03:21:03;101517.19;;;8.01;100.00
76297;BME280;65104;52.994;6.552;2023-04-29T03:23:29;101512.81;;;7.99;100.00
76297;BME280;65104;52.994;6.552;2023-04-29T03:25:54;101528.06;;;7.96;100.00
76297;BME280;65104;52.994;6.552;2023-04-29T03:28:20;101523.94;;;7.99;100.00
76297;BME280;65104;52.994;6.552;2023-04-29T03:30:45;101531.16;;;7.88;100.00
76297;BME280;65104;52.994;6.552;2023-04-29T03:33:10;101528.38;;;7.82;100.00
76297;BME280;65104;52.994;6.552;2023-04-29T03:35:36;101537.03;;;7.86;100.00
76297;BME280;65104;52.994;6.552;2023-04-29T03:38:01;101533.84;;;7.91;100.00
76297;BME280;65104;52.994;6.552;2023-04-29T03:40:26;101542.16;;;7.86;100.00
76297;BME280;65104;52.994;6.552;2023-04-29T03:42:52;101548.97;;;7.85;100.00
76297;BME280;65104;52.994;6.552;2023-04-29T03:45:17;101540.50;;;7.88;100.00
76297;BME280;65104;52.994;6.552;2023-04-29T03:47:43;101542.19;;;7.87;100.00
76297;BME280;65104;52.994;6.552;2023-04-29T03:50:08;101536.91;;;7.83;100.00
76297;BME280;65104;52.994;6.552;2023-04-29T03:52:34;101545.75;;;7.91;100.00
76297;BME280;65104;52.994;6.552;2023-04-29T03:55:03;101549.19;;;7.91;100.00
76297;BME280;65104;52.994;6.552;2023-04-29T03:57:28;101548.25;;;7.89;100.00
76297;BME280;65104;52.994;6.552;2023-04-29T03:59:53;101552.81;;;7.97;100.00
76297;BME280;65104;52.994;6.552;2023-04-29T04:02:19;101561.19;;;7.93;100.00
76297;BME280;65104;52.994;6.552;2023-04-29T04:04:44;101561.09;;;7.91;100.00
76297;BME280;65104;52.994;6.552;2023-04-29T04:07:10;101570.66;;;7.95;100.00
76297;BME280;65104;52.994;6.552;2023-04-29T04:09:36;101570.47;;;7.90;100.00
76297;BME280;65104;52.994;6.552;2023-04-29T04:12:02;101573.09;;;7.92;100.00
76297;BME280;65104;52.994;6.552;2023-04-29T04:14:27;101573.22;;;7.95;100.00
76297;BME280;65104;52.994;6.552;2023-04-29T04:16:53;101586.88;;;7.96;100.00
76297;BME280;65104;52.994;6.552;2023-04-29T04:19:19;101586.88;;;7.96;100.00
76297;BME280;65104;52.994;6.552;2023-04-29T04:21:44;101588.00;;;8.02;100.00
76297;BME280;65104;52.994;6.552;2023-04-29T04:24:10;101585.25;;;7.98;100.00
76297;BME280;65104;52.994;6.552;2023-04-29T04:26:35;101597.91;;;7.95;100.00
76297;BME280;65104;52.994;6.552;2023-04-29T04:29:00;101589.81;;;8.05;100.00
76297;BME280;65104;52.994;6.552;2023-04-29T04:31:26;101601.66;;;8.03;100.00
76297;BME280;65104;52.994;6.552;2023-04-29T04:33:52;101614.44;;;8.03;100.00
76297;BME280;65104;52.994;6.552;2023-04-29T04:36:18;101606.56;;;7.98;100.00
76297;BME280;65104;52.994;6.552;2023-04-29T04:38:43;101614.44;;;8.03;100.00
76297;BME280;65104;52.994;6.552;2023-04-29T04:41:08;101617.00;;;8.03;100.00
76297;BME280;65104;52.994;6.552;2023-04-29T04:43:34;101617.81;;;8.02;100.00
76297;BME280;65104;52.994;6.552;2023-04-29T04:45:59;101623.88;;;8.04;100.00
76297;BME280;65104;52.994;6.552;2023-04-29T04:48:24;101627.34;;;8.06;100.00
76297;BME280;65104;52.994;6.552;2023-04-29T04:50:50;101629.00;;;8.04;100.00
76297;BME280;65104;52.994;6.552;2023-04-29T04:53:15;101636.75;;;8.07;100.00
76297;BME280;65104;52.994;6.552;2023-04-29T04:55:41;101642.97;;;8.12;100.00
76297;BME280;65104;52.994;6.552;2023-04-29T04:58:06;101636.91;;;8.10;100.00
76297;BME280;65104;52.994;6.552;2023-04-29T05:00:32;101635.09;;;8.07;100.00
76297;BME280;65104;52.994;6.552;2023-04-29T05:02:57;101638.22;;;8.00;100.00
76297;BME280;65104;52.994;6.552;2023-04-29T05:05:23;101641.16;;;8.09;100.00
76297;BME280;65104;52.994;6.552;2023-04-29T05:07:48;101645.53;;;8.12;100.00
76297;BME280;65104;52.994;6.552;2023-04-29T05:10:13;101651.72;;;7.98;100.00
76297;BME280;65104;52.994;6.552;2023-04-29T05:12:39;101655.47;;;8.06;100.00
76297;BME280;65104;52.994;6.552;2023-04-29T05:15:05;101660.41;;;8.01;100.00
76297;BME280;65104;52.994;6.552;2023-04-29T05:17:30;101659.63;;;8.02;100.00
76297;BME280;65104;52.994;6.552;2023-04-29T05:19:56;101661.53;;;8.08;100.00
76297;BME280;65104;52.994;6.552;2023-04-29T05:22:21;101663.75;;;8.19;100.00
76297;BME280;65104;52.994;6.552;2023-04-29T05:24:46;101665.22;;;8.14;100.00
76297;BME280;65104;52.994;6.552;2023-04-29T05:27:15;101660.06;;;8.13;100.00
76297;BME280;65104;52.994;6.552;2023-04-29T05:29:41;101667.19;;;8.20;100.00
76297;BME280;65104;52.994;6.552;2023-04-29T05:32:06;101663.81;;;8.21;100.00
76297;BME280;65104;52.994;6.552;2023-04-29T05:34:32;101670.69;;;8.22;100.00
76297;BME280;65104;52.994;6.552;2023-04-29T05:36:57;101668.66;;;8.15;100.00
76297;BME280;65104;52.994;6.552;2023-04-29T05:39:23;101676.31;;;8.15;100.00
76297;BME280;65104;52.994;6.552;2023-04-29T05:41:48;101673.25;;;8.22;100.00
76297;BME280;65104;52.994;6.552;2023-04-29T05:44:14;101675.91;;;8.25;100.00
76297;BME280;65104;52.994;6.552;2023-04-29T05:46:39;101683.56;;;8.25;100.00
76297;BME280;65104;52.994;6.552;2023-04-29T05:49:04;101688.03;;;8.29;100.00
76297;BME280;65104;52.994;6.552;2023-04-29T05:51:30;101688.03;;;8.29;100.00
76297;BME280;65104;52.994;6.552;2023-04-29T05:53:56;101694.22;;;8.34;100.00
76297;BME280;65104;52.994;6.552;2023-04-29T05:56:23;101696.78;;;8.34;100.00
76297;BME280;65104;52.994;6.552;2023-04-29T05:58:49;101701.97;;;8.36;100.00
76297;BME280;65104;52.994;6.552;2023-04-29T06:01:14;101706.66;;;8.46;100.00
76297;BME280;65104;52.994;6.552;2023-04-29T06:03:41;101710.78;;;8.42;100.00
76297;BME280;65104;52.994;6.552;2023-04-29T06:06:07;101711.16;;;8.51;100.00
76297;BME280;65104;52.994;6.552;2023-04-29T06:08:32;101717.41;;;8.58;100.00
76297;BME280;65104;52.994;6.552;2023-04-29T06:10:58;101715.72;;;8.58;100.00
76297;BME280;65104;52.994;6.552;2023-04-29T06:13:23;101711.78;;;8.67;100.00
76297;BME280;65104;52.994;6.552;2023-04-29T06:15:49;101706.03;;;8.72;100.00
76297;BME280;65104;52.994;6.552;2023-04-29T06:18:14;101713.78;;;8.74;100.00
76297;BME280;65104;52.994;6.552;2023-04-29T06:20:40;101726.00;;;8.81;100.00
76297;BME280;65104;52.994;6.552;2023-04-29T06:23:05;101726.75;;;8.78;100.00
76297;BME280;65104;52.994;6.552;2023-04-29T06:25:30;101732.22;;;8.87;100.00
76297;BME280;65104;52.994;6.552;2023-04-29T06:27:56;101728.63;;;9.03;100.00
76297;BME280;65104;52.994;6.552;2023-04-29T06:30:22;101740.19;;;9.16;100.00
76297;BME280;65104;52.994;6.552;2023-04-29T06:32:47;101733.56;;;9.21;100.00
76297;BME280;65104;52.994;6.552;2023-04-29T06:35:12;101740.31;;;9.19;100.00
76297;BME280;65104;52.994;6.552;2023-04-29T06:37:38;101743.19;;;9.26;100.00
76297;BME280;65104;52.994;6.552;2023-04-29T06:40:04;101741.56;;;9.28;99.82
76297;BME280;65104;52.994;6.552;2023-04-29T06:42:29;101747.13;;;9.40;99.15
76297;BME280;65104;52.994;6.552;2023-04-29T06:44:55;101757.91;;;9.32;98.15
76297;BME280;65104;52.994;6.552;2023-04-29T06:47:20;101754.06;;;9.43;97.60
76297;BME280;65104;52.994;6.552;2023-04-29T06:49:45;101746.38;;;9.43;98.23
76297;BME280;65104;52.994;6.552;2023-04-29T06:52:11;101756.31;;;9.58;97.91
76297;BME280;65104;52.994;6.552;2023-04-29T06:54:36;101764.06;;;9.82;97.90
76297;BME280;65104;52.994;6.552;2023-04-29T06:57:02;101765.22;;;9.67;94.99
76297;BME280;65104;52.994;6.552;2023-04-29T06:59:27;101766.72;;;9.85;95.07
76297;BME280;65104;52.994;6.552;2023-04-29T07:01:53;101776.41;;;10.15;94.96
76297;BME280;65104;52.994;6.552;2023-04-29T07:04:18;101779.44;;;10.28;90.54
76297;BME280;65104;52.994;6.552;2023-04-29T07:06:43;101779.56;;;10.08;89.77
76297;BME280;65104;52.994;6.552;2023-04-29T07:09:11;101786.97;;;10.23;90.00
76297;BME280;65104;52.994;6.552;2023-04-29T07:11:38;101794.97;;;10.08;87.64
76297;BME280;65104;52.994;6.552;2023-04-29T07:14:03;101789.66;;;10.04;87.30
76297;BME280;65104;52.994;6.552;2023-04-29T07:16:29;101786.72;;;10.17;87.43
76297;BME280;65104;52.994;6.552;2023-04-29T07:18:54;101795.13;;;9.89;88.75
76297;BME280;65104;52.994;6.552;2023-04-29T07:21:20;101801.34;;;9.96;85.51
76297;BME280;65104;52.994;6.552;2023-04-29T07:23:45;101809.09;;;9.97;86.76
76297;BME280;65104;52.994;6.552;2023-04-29T07:26:12;101814.84;;;10.14;85.07
76297;BME280;65104;52.994;6.552;2023-04-29T07:28:38;101810.72;;;9.95;84.29
76297;BME280;65104;52.994;6.552;2023-04-29T07:31:05;101806.88;;;10.30;87.87
76297;BME280;65104;52.994;6.552;2023-04-29T07:33:31;101813.88;;;10.34;84.86
76297;BME280;65104;52.994;6.552;2023-04-29T07:35:57;101814.56;;;10.29;82.33
76297;BME280;65104;52.994;6.552;2023-04-29T07:38:22;101819.78;;;10.32;83.82
76297;BME280;65104;52.994;6.552;2023-04-29T07:40:47;101832.63;;;10.32;85.05
76297;BME280;65104;52.994;6.552;2023-04-29T07:43:13;101826.66;;;10.33;83.87
76297;BME280;65104;52.994;6.552;2023-04-29T07:45:38;101832.88;;;10.39;84.21
76297;BME280;65104;52.994;6.552;2023-04-29T07:48:04;101828.91;;;10.98;85.81
76297;BME280;65104;52.994;6.552;2023-04-29T07:50:30;101829.38;;;10.61;83.35
76297;BME280;65104;52.994;6.552;2023-04-29T07:52:55;101836.34;;;10.65;84.23
76297;BME280;65104;52.994;6.552;2023-04-29T07:55:22;101833.63;;;10.61;84.41
76297;BME280;65104;52.994;6.552;2023-04-29T07:57:47;101834.41;;;10.58;84.24
76297;BME280;65104;52.994;6.552;2023-04-29T08:00:13;101843.03;;;10.85;83.91
76297;BME280;65104;52.994;6.552;2023-04-29T08:02:38;101843.47;;;11.51;82.58
76297;BME280;65104;52.994;6.552;2023-04-29T08:05:03;101849.50;;;11.25;82.46
76297;BME280;65104;52.994;6.552;2023-04-29T08:07:29;101849.19;;;11.43;82.55
76297;BME280;65104;52.994;6.552;2023-04-29T08:09:54;101856.13;;;11.45;78.80
76297;BME280;65104;52.994;6.552;2023-04-29T08:12:20;101857.16;;;11.23;77.68
76297;BME280;65104;52.994;6.552;2023-04-29T08:14:45;101857.88;;;11.46;79.56
76297;BME280;65104;52.994;6.552;2023-04-29T08:17:10;101863.56;;;11.36;78.75
76297;BME280;65104;52.994;6.552;2023-04-29T08:19:36;101863.63;;;11.66;78.65
76297;BME280;65104;52.994;6.552;2023-04-29T08:22:01;101863.88;;;11.74;79.59
76297;BME280;65104;52.994;6.552;2023-04-29T08:24:28;101869.97;;;11.76;79.61
76297;BME280;65104;52.994;6.552;2023-04-29T08:26:53;101866.75;;;11.83;79.82
76297;BME280;65104;52.994;6.552;2023-04-29T08:29:19;101874.69;;;11.90;77.92
76297;BME280;65104;52.994;6.552;2023-04-29T08:31:44;101874.69;;;11.63;78.56
76297;BME280;65104;52.994;6.552;2023-04-29T08:34:10;101874.56;;;11.32;80.49
76297;BME280;65104;52.994;6.552;2023-04-29T08:36:36;101886.00;;;11.15;80.34
76297;BME280;65104;52.994;6.552;2023-04-29T08:39:03;101883.66;;;11.75;79.60
76297;BME280;65104;52.994;6.552;2023-04-29T08:41:30;101883.75;;;11.78;75.38
76297;BME280;65104;52.994;6.552;2023-04-29T08:43:58;101891.81;;;12.18;74.73
76297;BME280;65104;52.994;6.552;2023-04-29T08:46:25;101887.19;;;12.36;72.75
76297;BME280;65104;52.994;6.552;2023-04-29T08:48:51;101895.97;;;12.74;72.96
76297;BME280;65104;52.994;6.552;2023-04-29T08:51:17;101901.91;;;12.40;71.62
76297;BME280;65104;52.994;6.552;2023-04-29T08:53:43;101907.88;;;12.69;71.23
76297;BME280;65104;52.994;6.552;2023-04-29T08:56:12;101915.88;;;12.80;70.93
76297;BME280;65104;52.994;6.552;2023-04-29T08:58:40;101909.88;;;13.12;69.57
76297;BME280;65104;52.994;6.552;2023-04-29T09:01:09;101912.16;;;13.35;68.48
76297;BME280;65104;52.994;6.552;2023-04-29T09:03:43;101916.72;;;13.45;68.06
76297;BME280;65104;52.994;6.552;2023-04-29T09:06:11;101901.66;;;13.63;65.69
76297;BME280;65104;52.994;6.552;2023-04-29T09:08:38;101906.81;;;13.63;64.91
76297;BME280;65104;52.994;6.552;2023-04-29T09:11:07;101916.19;;;13.58;62.84
76297;BME280;65104;52.994;6.552;2023-04-29T09:13:33;101921.31;;;13.94;66.04
76297;BME280;65104;52.994;6.552;2023-04-29T09:15:58;101916.03;;;14.28;63.39
76297;BME280;65104;52.994;6.552;2023-04-29T09:18:42;101918.53;;;15.14;63.66
76297;BME280;65104;52.994;6.552;2023-04-29T09:21:16;101920.47;;;14.78;61.49
76297;BME280;65104;52.994;6.552;2023-04-29T09:23:41;101918.09;;;14.90;59.77
76297;BME280;65104;52.994;6.552;2023-04-29T09:26:07;101923.50;;;15.02;60.52
76297;BME280;65104;52.994;6.552;2023-04-29T09:28:32;101918.56;;;14.27;58.89
76297;BME280;65104;52.994;6.552;2023-04-29T09:30:58;101917.97;;;13.62;63.61
76297;BME280;65104;52.994;6.552;2023-04-29T09:33:23;101915.47;;;14.87;60.93
76297;BME280;65104;52.994;6.552;2023-04-29T09:35:53;101922.59;;;13.75;62.02
76297;BME280;65104;52.994;6.552;2023-04-29T09:38:18;101922.31;;;14.40;62.29
76297;BME280;65104;52.994;6.552;2023-04-29T09:40:45;101933.94;;;13.82;57.15
76297;BME280;65104;52.994;6.552;2023-04-29T09:43:15;101934.00;;;14.22;57.43
76297;BME280;65104;52.994;6.552;2023-04-29T09:45:44;101919.63;;;14.79;56.72
76297;BME280;65104;52.994;6.552;2023-04-29T09:48:11;101925.06;;;14.92;55.38
76297;BME280;65104;52.994;6.552;2023-04-29T09:50:37;101935.09;;;14.35;56.71
76297;BME280;65104;52.994;6.552;2023-04-29T09:53:05;101935.69;;;14.62;58.95
76297;BME280;65104;52.994;6.552;2023-04-29T09:55:34;101931.09;;;14.93;57.26
76297;BME280;65104;52.994;6.552;2023-04-29T09:58:00;101940.44;;;14.86;54.45
76297;BME280;65104;52.994;6.552;2023-04-29T10:00:29;101936.28;;;15.44;55.72
76297;BME280;65104;52.994;6.552;2023-04-29T10:02:57;101938.28;;;14.62;55.05
76297;BME280;65104;52.994;6.552;2023-04-29T10:05:27;101940.75;;;15.53;54.06
76297;BME280;65104;52.994;6.552;2023-04-29T10:07:54;101942.09;;;15.29;53.69
76297;BME280;65104;52.994;6.552;2023-04-29T10:10:20;101941.97;;;15.73;50.54
76297;BME280;65104;52.994;6.552;2023-04-29T10:12:47;101945.03;;;14.56;52.29
76297;BME280;65104;52.994;6.552;2023-04-29T10:15:19;101952.66;;;14.48;52.88
76297;BME280;65104;52.994;6.552;2023-04-29T10:18:29;101948.31;;;15.40;53.68
76297;BME280;65104;52.994;6.552;2023-04-29T10:20:56;101951.81;;;15.44;49.87
76297;BME280;65104;52.994;6.552;2023-04-29T10:23:23;101946.56;;;15.92;49.52
76297;BME280;65104;52.994;6.552;2023-04-29T10:25:51;101953.19;;;15.72;48.12
76297;BME280;65104;52.994;6.552;2023-04-29T10:28:17;101951.06;;;16.05;51.62
76297;BME280;65104;52.994;6.552;2023-04-29T10:30:44;101950.72;;;16.44;46.63
76297;BME280;65104;52.994;6.552;2023-04-29T10:33:15;101957.41;;;16.26;46.44
76297;BME280;65104;52.994;6.552;2023-04-29T10:35:42;101954.44;;;16.00;48.55
76297;BME280;65104;52.994;6.552;2023-04-29T10:38:14;101958.91;;;16.10;48.44
76297;BME280;65104;52.994;6.552;2023-04-29T10:40:44;101955.00;;;17.15;49.39
76297;BME280;65104;52.994;6.552;2023-04-29T10:43:11;101956.56;;;16.30;48.67
76297;BME280;65104;52.994;6.552;2023-04-29T10:45:36;101957.66;;;16.47;43.50
76297;BME280;65104;52.994;6.552;2023-04-29T10:50:34;101961.81;;;16.33;45.74
76297;BME280;65104;52.994;6.552;2023-04-29T10:53:04;101963.00;;;15.96;45.69
76297;BME280;65104;52.994;6.552;2023-04-29T10:55:30;101958.91;;;16.08;47.07
76297;BME280;65104;52.994;6.552;2023-04-29T10:57:56;101961.09;;;15.81;47.99
76297;BME280;65104;52.994;6.552;2023-04-29T11:00:25;101961.34;;;16.63;47.41
76297;BME280;65104;52.994;6.552;2023-04-29T11:02:59;101960.34;;;16.56;47.15
76297;BME280;65104;52.994;6.552;2023-04-29T11:05:35;101957.75;;;17.36;44.81
76297;BME280;65104;52.994;6.552;2023-04-29T11:08:19;101947.44;;;16.59;43.60
76297;BME280;65104;52.994;6.552;2023-04-29T11:10:52;101951.44;;;17.05;45.70
76297;BME280;65104;52.994;6.552;2023-04-29T11:13:28;101955.00;;;17.15;46.04
76297;BME280;65104;52.994;6.552;2023-04-29T11:16:07;101954.31;;;17.39;44.43
76297;BME280;65104;52.994;6.552;2023-04-29T11:19:02;101956.91;;;17.37;46.95
76297;BME280;65104;52.994;6.552;2023-04-29T11:21:22;101965.41;;;17.21;44.57
76297;BME280;65104;52.994;6.552;2023-04-29T11:23:50;101963.44;;;16.96;44.67
76297;BME280;65104;52.994;6.552;2023-04-29T11:26:18;101956.66;;;17.10;43.35
76297;BME280;65104;52.994;6.552;2023-04-29T11:28:44;101962.72;;;17.07;46.56
76297;BME280;65104;52.994;6.552;2023-04-29T11:31:10;101963.84;;;17.38;43.93
76297;BME280;65104;52.994;6.552;2023-04-29T11:33:35;101967.84;;;17.04;44.35
76297;BME280;65104;52.994;6.552;2023-04-29T11:36:01;101962.91;;;17.30;46.02
76297;BME280;65104;52.994;6.552;2023-04-29T11:38:28;101961.84;;;17.10;43.81
76297;BME280;65104;52.994;6.552;2023-04-29T11:40:56;101968.34;;;17.57;45.34
76297;BME280;65104;52.994;6.552;2023-04-29T11:43:23;101971.94;;;17.69;48.76
76297;BME280;65104;52.994;6.552;2023-04-29T11:45:50;101966.91;;;17.99;42.86
76297;BME280;65104;52.994;6.552;2023-04-29T11:48:25;101966.47;;;18.82;43.91
76297;BME280;65104;52.994;6.552;2023-04-29T11:50:56;101976.00;;;18.79;40.77
76297;BME280;65104;52.994;6.552;2023-04-29T11:53:26;101971.50;;;18.46;41.31
76297;BME280;65104;52.994;6.552;2023-04-29T11:55:54;101975.59;;;18.01;43.07
76297;BME280;65104;52.994;6.552;2023-04-29T11:58:20;101974.13;;;18.50;42.48
76297;BME280;65104;52.994;6.552;2023-04-29T12:00:46;101983.69;;;18.51;43.94
76297;BME280;65104;52.994;6.552;2023-04-29T12:03:13;101974.81;;;18.17;38.96
76297;BME280;65104;52.994;6.552;2023-04-29T12:05:39;101979.91;;;17.99;41.91
76297;BME280;65104;52.994;6.552;2023-04-29T12:08:06;101977.72;;;18.81;41.43
76297;BME280;65104;52.994;6.552;2023-04-29T12:10:35;101984.50;;;18.41;41.94
76297;BME280;65104;52.994;6.552;2023-04-29T12:13:01;101979.47;;;18.79;39.06
76297;BME280;65104;52.994;6.552;2023-04-29T12:15:27;101992.25;;;18.36;38.66
76297;BME280;65104;52.994;6.552;2023-04-29T12:17:53;101985.59;;;18.93;38.87
76297;BME280;65104;52.994;6.552;2023-04-29T12:20:19;101991.50;;;18.56;37.97
76297;BME280;65104;52.994;6.552;2023-04-29T12:22:45;101993.13;;;18.32;39.37
76297;BME280;65104;52.994;6.552;2023-04-29T12:25:11;101995.00;;;18.62;37.98
76297;BME280;65104;52.994;6.552;2023-04-29T12:27:38;101995.00;;;18.58;38.77
76297;BME280;65104;52.994;6.552;2023-04-29T12:30:06;101997.78;;;19.17;40.09
76297;BME280;65104;52.994;6.552;2023-04-29T12:32:32;101987.16;;;18.55;37.02
76297;BME280;65104;52.994;6.552;2023-04-29T12:34:58;101996.63;;;18.39;37.11
76297;BME280;65104;52.994;6.552;2023-04-29T12:37:23;101998.53;;;18.72;39.55
76297;BME280;65104;52.994;6.552;2023-04-29T12:39:50;101998.53;;;18.75;38.84
76297;BME280;65104;52.994;6.552;2023-04-29T12:42:15;101996.06;;;19.36;37.84
76297;BME280;65104;52.994;6.552;2023-04-29T12:44:44;102005.50;;;18.84;38.07
76297;BME280;65104;52.994;6.552;2023-04-29T12:47:11;101997.75;;;18.94;39.41
76297;BME280;65104;52.994;6.552;2023-04-29T12:49:40;102002.03;;;18.77;37.98
76297;BME280;65104;52.994;6.552;2023-04-29T12:52:06;102005.28;;;18.40;37.98
76297;BME280;65104;52.994;6.552;2023-04-29T12:54:37;102000.28;;;18.74;37.59
76297;BME280;65104;52.994;6.552;2023-04-29T12:57:05;102004.56;;;18.65;37.16
76297;BME280;65104;52.994;6.552;2023-04-29T12:59:30;101999.53;;;19.44;38.06